createdAt,value
2018-09-29T00:01:42.435Z,19.33
2018-09-29T00:04:10.118Z,20.57
2018-09-29T00:06:37.927Z,19.60
2018-09-29T00:09:08.502Z,17.63
2018-09-29T00:11:36.247Z,17.60
2018-09-29T00:14:03.965Z,16.20
2018-09-29T00:16:31.751Z,17.23
2018-09-29T00:18:59.429Z,18.00
2018-09-29T00:21:27.154Z,19.67
2018-09-29T00:23:54.900Z,23.33
2018-09-29T00:26:22.612Z,21.50
2018-09-29T00:28:50.514Z,17.30
2018-09-29T00:31:18.270Z,16.13
2018-09-29T00:33:46.619Z,18.13
2018-09-29T00:36:14.335Z,15.00
2018-09-29T00:38:42.067Z,18.60
2018-09-29T00:41:09.894Z,17.40
2018-09-29T00:43:37.642Z,15.17
2018-09-29T00:46:05.376Z,16.73
2018-09-29T00:48:33.238Z,14.87
2018-09-29T00:51:01.006Z,13.70
2018-09-29T00:53:28.717Z,14.63
2018-09-29T00:55:56.461Z,16.23
2018-09-29T00:58:24.190Z,16.37
2018-09-29T01:00:51.933Z,14.90
2018-09-29T01:03:19.698Z,15.73
2018-09-29T01:05:47.415Z,15.80
2018-09-29T01:08:15.138Z,13.27
2018-09-29T01:10:42.875Z,18.97
2018-09-29T01:13:10.621Z,13.73
2018-09-29T01:15:38.521Z,17.30
2018-09-29T01:18:06.710Z,14.70
2018-09-29T01:20:34.443Z,15.93
2018-09-29T01:23:02.190Z,13.70
2018-09-29T01:25:29.906Z,15.53
2018-09-29T01:27:57.629Z,16.53
2018-09-29T01:30:25.705Z,16.00
2018-09-29T01:32:53.439Z,14.83
2018-09-29T01:35:21.166Z,14.37
2018-09-29T01:37:48.880Z,14.97
2018-09-29T01:40:16.610Z,12.00
2018-09-29T01:42:44.321Z,12.50
2018-09-29T01:45:12.079Z,15.20
2018-09-29T01:47:39.798Z,16.33
2018-09-29T01:50:07.554Z,15.97
2018-09-29T01:52:35.283Z,15.30
2018-09-29T01:55:02.987Z,17.23
2018-09-29T01:57:30.754Z,15.40
2018-09-29T01:59:58.466Z,13.87
2018-09-29T02:02:26.187Z,14.27
2018-09-29T02:04:54.308Z,16.27
2018-09-29T02:07:22.361Z,14.27
2018-09-29T02:09:50.542Z,16.73
2018-09-29T02:12:18.502Z,16.93
2018-09-29T02:14:46.250Z,14.77
2018-09-29T02:17:13.970Z,15.27
2018-09-29T02:19:41.675Z,15.23
2018-09-29T02:22:09.366Z,14.93
2018-09-29T02:24:37.081Z,14.57
2018-09-29T02:27:04.913Z,13.20
2018-09-29T02:29:32.725Z,15.37
2018-09-29T02:32:00.438Z,13.83
2018-09-29T02:34:28.145Z,13.73
2018-09-29T02:36:55.854Z,12.27
2018-09-29T02:39:23.569Z,14.63
2018-09-29T02:41:51.287Z,11.17
2018-09-29T02:44:19.008Z,12.10
2018-09-29T02:46:46.738Z,12.13
2018-09-29T02:49:14.438Z,13.33
2018-09-29T02:51:42.160Z,12.77
2018-09-29T02:54:09.870Z,14.00
2018-09-29T02:56:37.590Z,12.60
2018-09-29T02:59:05.343Z,14.33
2018-09-29T03:01:33.086Z,12.50
2018-09-29T03:04:00.831Z,12.03
2018-09-29T03:06:28.544Z,15.27
2018-09-29T03:08:56.270Z,14.67
2018-09-29T03:11:23.958Z,12.13
2018-09-29T03:13:51.669Z,11.53
2018-09-29T03:16:19.374Z,13.13
2018-09-29T03:18:47.077Z,12.57
2018-09-29T03:21:14.900Z,12.23
2018-09-29T03:23:42.635Z,12.23
2018-09-29T03:26:10.345Z,12.30
2018-09-29T03:28:38.095Z,12.37
2018-09-29T03:31:06.086Z,11.83
2018-09-29T03:33:33.799Z,11.53
2018-09-29T03:36:01.531Z,12.23
2018-09-29T03:38:29.254Z,8.43
2018-09-29T03:40:56.974Z,11.73
2018-09-29T03:43:24.691Z,10.27
2018-09-29T03:45:52.410Z,10.67
2018-09-29T03:48:20.129Z,10.87
2018-09-29T03:50:47.946Z,12.97
2018-09-29T03:53:15.661Z,13.43
2018-09-29T03:55:43.394Z,11.97
2018-09-29T03:58:11.112Z,10.43
2018-09-29T04:00:38.826Z,12.10
2018-09-29T04:03:06.589Z,9.00
2018-09-29T04:05:34.363Z,14.03
2018-09-29T04:08:02.075Z,13.77
2018-09-29T04:10:29.775Z,16.23
2018-09-29T04:12:57.505Z,13.00
2018-09-29T04:15:25.274Z,15.13
2018-09-29T04:17:53.026Z,12.80
2018-09-29T04:20:20.730Z,14.17
2018-09-29T04:22:48.475Z,12.20
2018-09-29T04:25:16.184Z,12.10
2018-09-29T04:27:43.906Z,11.83
2018-09-29T04:30:11.634Z,9.43
2018-09-29T04:32:39.348Z,10.07
2018-09-29T04:35:07.070Z,13.10
2018-09-29T04:37:34.785Z,14.10
2018-09-29T04:40:02.621Z,24.53
2018-09-29T04:42:30.322Z,28.10
2018-09-29T04:44:58.035Z,11.17
2018-09-29T04:47:25.752Z,12.47
2018-09-29T04:49:53.474Z,12.37
2018-09-29T04:52:21.171Z,13.10
2018-09-29T04:54:48.902Z,10.17
2018-09-29T04:57:16.606Z,13.30
2018-09-29T04:59:44.314Z,12.33
2018-09-29T05:02:12.032Z,13.00
2018-09-29T05:04:39.747Z,13.87
2018-09-29T05:07:07.539Z,9.40
2018-09-29T05:09:35.227Z,10.83
2018-09-29T05:12:02.941Z,16.03
2018-09-29T05:14:30.659Z,20.17
2018-09-29T05:16:58.414Z,10.83
2018-09-29T05:19:26.142Z,15.17
2018-09-29T05:21:53.851Z,14.70
2018-09-29T05:24:21.549Z,12.93
2018-09-29T05:26:49.254Z,15.83
2018-09-29T05:29:16.970Z,12.30
2018-09-29T05:31:44.681Z,14.07
2018-09-29T05:34:12.381Z,18.20
2018-09-29T05:36:40.090Z,17.17
2018-09-29T05:39:08.700Z,13.80
2018-09-29T05:41:36.426Z,14.63
2018-09-29T05:44:04.185Z,15.13
2018-09-29T05:46:31.922Z,15.17
2018-09-29T05:49:00.063Z,15.17
2018-09-29T05:51:27.778Z,15.40
2018-09-29T05:53:55.519Z,15.23
2018-09-29T05:56:23.599Z,15.37
2018-09-29T05:58:51.402Z,16.37
2018-09-29T06:01:19.158Z,14.07
2018-09-29T06:03:46.878Z,14.60
2018-09-29T06:06:14.951Z,13.57
2018-09-29T06:08:43.317Z,12.70
2018-09-29T06:11:11.057Z,10.70
2018-09-29T06:13:38.782Z,12.23
2018-09-29T06:16:06.698Z,13.43
2018-09-29T06:18:34.393Z,10.57
2018-09-29T06:21:02.224Z,17.63
2018-09-29T06:23:30.310Z,15.63
2018-09-29T06:25:58.385Z,15.43
2018-09-29T06:28:26.555Z,17.93
2018-09-29T06:30:55.702Z,16.80
2018-09-29T06:33:24.754Z,17.87
2018-09-29T06:35:53.442Z,16.30
2018-09-29T06:38:21.518Z,15.30
2018-09-29T06:40:49.272Z,16.70
2018-09-29T06:43:16.980Z,15.90
2018-09-29T06:45:44.782Z,15.13
2018-09-29T06:48:12.502Z,20.37
2018-09-29T06:50:40.344Z,20.77
2018-09-29T06:53:08.077Z,15.57
2018-09-29T06:55:35.810Z,17.47
2018-09-29T06:58:03.542Z,12.03
2018-09-29T07:00:32.874Z,13.03
2018-09-29T07:03:00.656Z,13.17
2018-09-29T07:05:29.595Z,14.97
2018-09-29T07:08:02.388Z,10.07
2018-09-29T07:10:30.127Z,11.53
2018-09-29T07:12:57.924Z,11.70
2018-09-29T07:15:25.625Z,10.70
2018-09-29T07:17:53.526Z,10.40
2018-09-29T07:20:21.303Z,7.13
2018-09-29T07:22:49.191Z,9.87
2018-09-29T07:25:17.076Z,8.70
2018-09-29T07:27:44.814Z,7.53
2018-09-29T07:30:12.538Z,8.30
2018-09-29T07:32:40.267Z,7.83
2018-09-29T07:35:07.994Z,7.63
2018-09-29T07:37:35.814Z,9.57
2018-09-29T07:40:03.654Z,10.77
2018-09-29T07:42:31.386Z,9.30
2018-09-29T07:44:59.110Z,8.63
2018-09-29T07:47:26.866Z,8.50
2018-09-29T07:49:54.587Z,8.97
2018-09-29T07:52:22.342Z,8.67
2018-09-29T07:54:50.093Z,5.80
2018-09-29T07:57:17.822Z,9.47
2018-09-29T07:59:45.550Z,6.80
2018-09-29T08:02:13.298Z,6.27
2018-09-29T08:04:41.015Z,6.97
2018-09-29T08:07:08.762Z,6.13
2018-09-29T08:09:36.635Z,7.13
2018-09-29T08:12:04.465Z,6.30
2018-09-29T08:14:32.174Z,7.13
2018-09-29T08:16:59.934Z,6.93
2018-09-29T08:19:27.654Z,6.80
2018-09-29T08:21:55.367Z,5.20
2018-09-29T08:24:23.132Z,7.13
2018-09-29T08:26:51.137Z,11.23
2018-09-29T08:29:18.850Z,8.60
2018-09-29T08:31:46.562Z,5.93
2018-09-29T08:34:14.289Z,6.03
2018-09-29T08:36:42.009Z,5.60
2018-09-29T08:39:10.241Z,6.57
2018-09-29T08:41:38.082Z,6.80
2018-09-29T08:44:05.922Z,9.80
2018-09-29T08:46:34.093Z,6.33
2018-09-29T08:49:01.789Z,9.43
2018-09-29T08:51:29.586Z,8.23
2018-09-29T08:53:57.443Z,7.77
2018-09-29T08:56:25.198Z,7.13
2018-09-29T08:58:54.054Z,5.37
2018-09-29T09:01:21.971Z,5.17
2018-09-29T09:03:49.748Z,7.10
2018-09-29T09:06:17.469Z,8.60
2018-09-29T09:08:45.261Z,4.87
2018-09-29T09:11:13.035Z,5.87
2018-09-29T09:13:40.785Z,9.80
2018-09-29T09:16:08.602Z,6.37
2018-09-29T09:18:37.779Z,8.03
2018-09-29T09:21:05.683Z,7.97
2018-09-29T09:23:34.185Z,10.90
2018-09-29T09:26:01.971Z,5.90
2018-09-29T09:28:29.719Z,7.47
2018-09-29T09:30:57.494Z,10.43
2018-09-29T09:33:25.229Z,6.27
2018-09-29T09:35:53.034Z,11.83
2018-09-29T09:38:20.783Z,10.60
2018-09-29T09:40:48.550Z,9.07
2018-09-29T09:43:16.323Z,9.37
2018-09-29T09:45:44.149Z,8.90
2018-09-29T09:48:11.913Z,8.50
2018-09-29T09:50:39.666Z,8.20
2018-09-29T09:53:07.450Z,10.60
2018-09-29T09:55:35.188Z,11.70
2018-09-29T09:58:02.966Z,8.97
2018-09-29T10:00:36.147Z,12.20
2018-09-29T10:03:09.446Z,7.93
2018-09-29T10:05:37.210Z,11.07
2018-09-29T10:08:05.000Z,7.53
2018-09-29T10:10:32.758Z,8.30
2018-09-29T10:13:00.506Z,8.53
2018-09-29T10:15:28.279Z,7.90
2018-09-29T10:17:55.995Z,7.70
2018-09-29T10:20:23.726Z,8.03
2018-09-29T10:22:51.482Z,7.80
2018-09-29T10:25:19.254Z,9.17
2018-09-29T10:27:47.048Z,9.77
2018-09-29T10:30:14.762Z,6.90
2018-09-29T10:32:42.538Z,9.97
2018-09-29T10:35:10.247Z,9.20
2018-09-29T10:37:37.966Z,8.77
2018-09-29T10:40:05.922Z,12.13
2018-09-29T10:42:33.686Z,9.83
2018-09-29T10:45:01.459Z,9.87
2018-09-29T10:47:29.289Z,12.33
2018-09-29T10:49:57.262Z,10.43
2018-09-29T10:52:24.989Z,7.77
2018-09-29T10:54:52.742Z,10.20
2018-09-29T10:57:20.482Z,6.43
2018-09-29T10:59:48.226Z,7.83
2018-09-29T11:02:16.036Z,9.23
2018-09-29T11:04:43.754Z,10.00
2018-09-29T11:07:11.465Z,7.97
2018-09-29T11:09:39.286Z,7.57
2018-09-29T11:12:07.130Z,8.90
2018-09-29T11:14:34.851Z,11.20
2018-09-29T11:17:02.614Z,6.63
2018-09-29T11:19:30.397Z,7.73
2018-09-29T11:21:58.134Z,5.77
2018-09-29T11:24:25.857Z,9.47
2018-09-29T11:26:53.630Z,7.53
2018-09-29T11:29:21.355Z,7.40
2018-09-29T11:31:49.098Z,7.53
2018-09-29T11:34:16.846Z,9.20
2018-09-29T11:36:44.567Z,13.70
2018-09-29T11:39:12.851Z,9.03
2018-09-29T11:41:40.910Z,8.23
2018-09-29T11:44:09.202Z,7.63
2018-09-29T11:46:36.962Z,9.87
2018-09-29T11:49:04.926Z,8.33
2018-09-29T11:51:32.651Z,12.40
2018-09-29T11:54:00.393Z,11.90
2018-09-29T11:56:28.143Z,9.63
2018-09-29T11:58:55.886Z,12.43
2018-09-29T12:01:23.703Z,11.77
2018-09-29T12:03:51.423Z,10.27
2018-09-29T12:06:19.186Z,10.07
2018-09-29T12:08:47.814Z,11.37
2018-09-29T12:11:15.665Z,7.60
2018-09-29T12:13:43.532Z,8.20
2018-09-29T12:16:11.246Z,10.73
2018-09-29T12:18:38.973Z,8.90
2018-09-29T12:21:06.809Z,7.17
2018-09-29T12:23:34.742Z,9.33
2018-09-29T12:26:02.541Z,14.67
2018-09-29T12:28:30.258Z,12.57
2018-09-29T12:30:57.982Z,10.30
2018-09-29T12:33:25.727Z,10.90
2018-09-29T12:35:53.458Z,9.80
2018-09-29T12:38:21.177Z,11.97
2018-09-29T12:40:48.894Z,9.03
2018-09-29T12:43:16.656Z,10.63
2018-09-29T12:45:44.441Z,11.47
2018-09-29T12:48:12.157Z,11.27
2018-09-29T12:50:39.930Z,10.47
2018-09-29T12:53:07.678Z,11.70
2018-09-29T12:55:35.410Z,10.43
2018-09-29T12:58:03.142Z,13.57
2018-09-29T13:00:30.866Z,9.57
2018-09-29T13:02:58.621Z,10.33
2018-09-29T13:05:26.358Z,13.90
2018-09-29T13:07:54.087Z,11.70
2018-09-29T13:10:21.819Z,13.17
2018-09-29T13:12:49.550Z,11.57
2018-09-29T13:15:17.302Z,16.87
2018-09-29T13:17:45.024Z,13.43
2018-09-29T13:20:12.970Z,12.40
2018-09-29T13:22:40.731Z,14.40
2018-09-29T13:25:08.454Z,9.97
2018-09-29T13:27:36.213Z,13.73
2018-09-29T13:30:04.325Z,11.50
2018-09-29T13:32:32.105Z,15.20
2018-09-29T13:34:59.825Z,15.50
2018-09-29T13:37:27.926Z,13.50
2018-09-29T13:39:55.658Z,12.63
2018-09-29T13:42:23.382Z,11.67
2018-09-29T13:44:51.138Z,12.17
2018-09-29T13:47:18.894Z,12.10
2018-09-29T13:49:46.606Z,13.13
2018-09-29T13:52:14.327Z,14.80
2018-09-29T13:54:42.029Z,15.60
2018-09-29T13:57:09.782Z,16.03
2018-09-29T13:59:37.507Z,13.03
2018-09-29T14:02:05.355Z,11.83
2018-09-29T14:04:33.079Z,10.30
2018-09-29T14:07:00.815Z,15.27
2018-09-29T14:09:28.551Z,13.60
2018-09-29T14:11:56.283Z,13.23
2018-09-29T14:14:23.986Z,21.90
2018-09-29T14:16:51.703Z,13.87
2018-09-29T14:19:19.447Z,19.10
2018-09-29T14:21:47.186Z,11.20
2018-09-29T14:24:14.969Z,13.90
2018-09-29T14:26:42.695Z,13.50
2018-09-29T14:29:10.450Z,14.53
2018-09-29T14:31:38.165Z,16.30
2018-09-29T14:34:06.031Z,13.80
2018-09-29T14:36:33.763Z,13.60
2018-09-29T14:39:01.522Z,13.33
2018-09-29T14:41:29.240Z,13.27
2018-09-29T14:43:56.958Z,12.30
2018-09-29T14:46:24.670Z,12.67
2018-09-29T14:48:52.403Z,13.27
2018-09-29T14:51:20.153Z,14.47
2018-09-29T14:53:47.870Z,15.83
2018-09-29T14:56:15.598Z,16.47
2018-09-29T14:58:43.330Z,11.40
2018-09-29T15:01:11.090Z,13.40
2018-09-29T15:03:38.833Z,12.90
2018-09-29T15:06:06.584Z,13.37
2018-09-29T15:08:34.310Z,14.83
2018-09-29T15:11:02.037Z,15.63
2018-09-29T15:13:29.761Z,11.87
2018-09-29T15:15:57.541Z,17.47
2018-09-29T15:18:25.270Z,13.93
2018-09-29T15:20:53.086Z,11.60
2018-09-29T15:23:20.887Z,13.03
2018-09-29T15:25:48.614Z,17.27
2018-09-29T15:28:16.322Z,10.40
2018-09-29T15:30:44.082Z,14.00
2018-09-29T15:33:11.851Z,15.67
2018-09-29T15:35:39.646Z,15.57
2018-09-29T15:38:07.370Z,14.67
2018-09-29T15:40:35.131Z,16.23
2018-09-29T15:43:02.867Z,15.53
2018-09-29T15:45:30.734Z,15.63
2018-09-29T15:47:58.454Z,18.23
2018-09-29T15:50:26.181Z,19.00
2018-09-29T15:52:53.929Z,18.57
2018-09-29T15:55:21.811Z,21.03
2018-09-29T15:57:50.178Z,17.83
2018-09-29T16:00:19.506Z,19.87
2018-09-29T16:02:47.505Z,18.03
2018-09-29T16:05:15.281Z,17.47
2018-09-29T16:07:43.078Z,22.97
2018-09-29T16:10:13.010Z,19.47
2018-09-29T16:12:40.810Z,17.90
2018-09-29T16:15:08.586Z,21.23
2018-09-29T16:17:36.299Z,19.00
2018-09-29T16:20:04.175Z,16.03
2018-09-29T16:22:31.922Z,17.23
2018-09-29T16:24:59.665Z,20.17
2018-09-29T16:27:28.042Z,17.23
2018-09-29T16:29:55.774Z,17.27
2018-09-29T16:32:23.518Z,20.63
2018-09-29T16:34:51.303Z,16.17
2018-09-29T16:37:19.042Z,18.60
2018-09-29T16:39:47.393Z,15.47
2018-09-29T16:42:15.194Z,19.17
2018-09-29T16:44:42.945Z,17.03
2018-09-29T16:47:10.707Z,17.40
2018-09-29T16:49:38.440Z,17.17
2018-09-29T16:52:06.202Z,16.27
2018-09-29T16:54:33.909Z,17.60
2018-09-29T16:57:01.663Z,18.90
2018-09-29T16:59:29.378Z,17.27
2018-09-29T17:01:57.127Z,13.73
2018-09-29T17:04:24.974Z,15.80
2018-09-29T17:06:52.590Z,16.50
2018-09-29T17:09:20.298Z,16.40
2018-09-29T17:11:48.065Z,15.60
2018-09-29T17:14:15.773Z,16.43
2018-09-29T17:16:43.497Z,17.40
2018-09-29T17:19:11.202Z,17.43
2018-09-29T17:21:38.929Z,17.60
2018-09-29T17:24:06.655Z,17.23
2018-09-29T17:26:34.369Z,14.33
2018-09-29T17:29:02.086Z,16.60
2018-09-29T17:31:29.846Z,13.97
2018-09-29T17:33:57.582Z,12.53
2018-09-29T17:36:25.290Z,12.47
2018-09-29T17:38:53.018Z,14.00
2018-09-29T17:41:20.735Z,13.00
2018-09-29T17:43:48.457Z,10.73
2018-09-29T17:46:16.234Z,12.77
2018-09-29T17:48:44.007Z,12.83
2018-09-29T17:51:12.371Z,12.20
2018-09-29T17:53:40.090Z,16.47
2018-09-29T17:56:07.894Z,13.17
2018-09-29T17:58:35.602Z,10.97
2018-09-29T18:01:03.379Z,12.67
2018-09-29T18:03:31.275Z,13.13
2018-09-29T18:05:58.994Z,15.13
2018-09-29T18:08:26.743Z,11.87
2018-09-29T18:10:54.461Z,12.53
2018-09-29T18:13:22.198Z,12.10
2018-09-29T18:15:49.978Z,14.27
2018-09-29T18:18:17.705Z,17.30
2018-09-29T18:20:45.430Z,12.57
2018-09-29T18:23:13.141Z,16.17
2018-09-29T18:25:40.898Z,15.27
2018-09-29T18:28:08.675Z,13.67
2018-09-29T18:30:36.369Z,14.20
2018-09-29T18:33:04.099Z,11.67
2018-09-29T18:35:31.827Z,11.60
2018-09-29T18:37:59.549Z,14.40
2018-09-29T18:40:27.277Z,14.00
2018-09-29T18:42:55.038Z,13.40
2018-09-29T18:45:22.782Z,12.10
2018-09-29T18:47:50.479Z,12.80
2018-09-29T18:50:18.206Z,12.97
2018-09-29T18:52:45.923Z,13.27
2018-09-29T18:55:13.813Z,11.57
2018-09-29T18:57:41.638Z,10.77
2018-09-29T19:00:09.450Z,14.20
2018-09-29T19:02:37.161Z,11.10
2018-09-29T19:05:04.974Z,14.90
2018-09-29T19:07:32.810Z,11.90
2018-09-29T19:10:00.563Z,15.20
2018-09-29T19:12:28.282Z,15.23
2018-09-29T19:14:56.102Z,16.60
2018-09-29T19:17:23.818Z,14.47
2018-09-29T19:19:51.575Z,14.13
2018-09-29T19:22:19.289Z,12.03
2018-09-29T19:24:47.029Z,12.37
2018-09-29T19:27:14.750Z,13.00
2018-09-29T19:29:42.531Z,14.93
2018-09-29T19:32:10.241Z,13.20
2018-09-29T19:34:39.532Z,18.40
2018-09-29T19:37:07.253Z,15.70
2018-09-29T19:39:35.038Z,10.90
2018-09-29T19:42:02.718Z,13.97
2018-09-29T19:44:30.834Z,14.30
2018-09-29T19:46:59.546Z,14.57
2018-09-29T19:49:27.370Z,12.23
2018-09-29T19:51:55.139Z,12.57
2018-09-29T19:54:22.882Z,16.23
2018-09-29T19:56:50.607Z,14.27
2018-09-29T19:59:18.382Z,12.33
2018-09-29T20:01:46.152Z,15.40
2018-09-29T20:04:13.897Z,16.00
2018-09-29T20:06:41.670Z,15.33
2018-09-29T20:09:10.194Z,13.70
2018-09-29T20:11:37.985Z,14.23
2018-09-29T20:14:05.806Z,15.97
2018-09-29T20:16:33.598Z,16.93
2018-09-29T20:19:02.409Z,13.37
2018-09-29T20:21:30.155Z,17.77
2018-09-29T20:23:57.893Z,17.73
2018-09-29T20:26:25.609Z,18.03
2018-09-29T20:28:53.369Z,14.20
2018-09-29T20:31:21.139Z,14.27
2018-09-29T20:33:48.847Z,13.53
2018-09-29T20:36:16.655Z,15.13
2018-09-29T20:38:44.426Z,13.57
2018-09-29T20:41:12.141Z,16.73
2018-09-29T20:43:39.855Z,12.97
2018-09-29T20:46:07.890Z,12.00
2018-09-29T20:48:35.630Z,12.93
2018-09-29T20:51:03.359Z,12.67
2018-09-29T20:53:31.085Z,12.63
2018-09-29T20:55:58.826Z,15.77
2018-09-29T20:58:26.543Z,16.70
2018-09-29T21:00:54.258Z,17.03
2018-09-29T21:03:21.968Z,16.60
2018-09-29T21:05:49.713Z,14.90
2018-09-29T21:08:17.443Z,16.23
2018-09-29T21:10:45.226Z,15.23
2018-09-29T21:13:13.014Z,13.17
2018-09-29T21:15:40.680Z,12.97
2018-09-29T21:18:08.405Z,13.13
2018-09-29T21:20:36.121Z,13.90
2018-09-29T21:23:03.930Z,15.33
2018-09-29T21:25:31.647Z,14.33
2018-09-29T21:27:59.382Z,13.70
2018-09-29T21:30:27.094Z,12.37
2018-09-29T21:32:54.832Z,11.80
2018-09-29T21:35:22.566Z,11.03
2018-09-29T21:37:50.581Z,13.00
2018-09-29T21:40:18.293Z,11.57
2018-09-29T21:42:46.005Z,15.00
2018-09-29T21:45:13.774Z,11.60
2018-09-29T21:47:41.495Z,14.27
2018-09-29T21:50:09.206Z,13.47
2018-09-29T21:52:36.919Z,13.07
2018-09-29T21:55:04.637Z,15.00
2018-09-29T21:57:32.358Z,13.20
2018-09-29T22:00:00.063Z,13.53
2018-09-29T22:02:27.770Z,15.70
2018-09-29T22:04:55.489Z,18.83
2018-09-29T22:07:23.214Z,17.40
2018-09-29T22:09:50.949Z,14.47
2018-09-29T22:12:18.666Z,17.23
2018-09-29T22:14:46.409Z,16.87
2018-09-29T22:17:14.137Z,13.87
2018-09-29T22:19:41.858Z,18.57
2018-09-29T22:22:09.583Z,18.13
2018-09-29T22:24:37.326Z,17.13
2018-09-29T22:27:05.107Z,13.67
2018-09-29T22:29:32.825Z,19.67
2018-09-29T22:32:00.537Z,17.97
2018-09-29T22:34:28.277Z,15.37
2018-09-29T22:36:56.036Z,18.33
2018-09-29T22:39:23.757Z,15.57
2018-09-29T22:41:51.466Z,18.10
2018-09-29T22:44:19.186Z,15.30
2018-09-29T22:46:46.915Z,18.70
2018-09-29T22:49:14.650Z,17.10
2018-09-29T22:51:42.403Z,15.57
2018-09-29T22:54:10.118Z,15.70
2018-09-29T22:56:37.845Z,17.13
2018-09-29T22:59:05.606Z,15.43
2018-09-29T23:01:33.341Z,20.27
2018-09-29T23:04:01.085Z,13.20
2018-09-29T23:06:28.826Z,17.83
2018-09-29T23:08:56.545Z,15.93
2018-09-29T23:11:24.378Z,11.83
2018-09-29T23:13:52.176Z,15.47
2018-09-29T23:16:19.937Z,16.60
2018-09-29T23:18:47.669Z,12.97
2018-09-29T23:21:15.390Z,15.83
2018-09-29T23:23:43.134Z,13.93
2018-09-29T23:26:10.877Z,11.63
2018-09-29T23:28:38.617Z,12.53
2018-09-29T23:31:06.433Z,9.63
2018-09-29T23:33:34.186Z,13.27
2018-09-29T23:36:01.957Z,9.70
2018-09-29T23:38:29.726Z,9.67
2018-09-29T23:40:57.463Z,12.73
2018-09-29T23:43:25.198Z,11.37
2018-09-29T23:45:52.932Z,11.80
2018-09-29T23:48:20.667Z,11.07
2018-09-29T23:50:48.422Z,10.53
2018-09-29T23:53:16.173Z,7.17
2018-09-29T23:55:43.947Z,9.27
2018-09-29T23:58:11.680Z,10.47
